createdAt,value
2016-06-02T00:00:51.426Z,69.2
2016-06-02T00:01:51.366Z,69.1
2016-06-02T00:02:51.354Z,69.29
2016-06-02T00:03:51.184Z,69.2
2016-06-02T00:04:51.327Z,69.29
2016-06-02T00:05:51.314Z,69.2
2016-06-02T00:06:51.285Z,69.39
2016-06-02T00:07:51.288Z,69.1
2016-06-02T00:08:51.276Z,68.81
2016-06-02T00:09:51.841Z,69.1
2016-06-02T00:10:51.250Z,69.1
2016-06-02T00:11:51.236Z,68.81
2016-06-02T00:12:51.224Z,68.62
2016-06-02T00:13:51.039Z,68.81
2016-06-02T00:14:51.198Z,69.29
2016-06-02T00:15:51.184Z,69.2
2016-06-02T00:16:51.172Z,69.29
2016-06-02T00:17:51.159Z,68.81
2016-06-02T00:18:51.147Z,68.81
2016-06-02T00:19:51.117Z,68.81
2016-06-02T00:20:51.105Z,69.49
2016-06-02T00:21:51.092Z,68.81
2016-06-02T00:22:50.922Z,68.62
2016-06-02T00:23:50.910Z,68.62
2016-06-02T00:24:51.256Z,68.71
2016-06-02T00:25:51.040Z,68.52
2016-06-02T00:26:51.027Z,69.29
2016-06-02T00:27:51.014Z,69.2
2016-06-02T00:28:51.001Z,68.33
2016-06-02T00:29:50.989Z,68.62
2016-06-02T00:30:50.835Z,68.81
2016-06-02T00:31:50.977Z,68.62
2016-06-02T00:32:50.965Z,68.62
2016-06-02T00:33:50.937Z,68.71
2016-06-02T00:34:50.924Z,68.62
2016-06-02T00:35:50.910Z,68.43
2016-06-02T00:36:50.898Z,68.33
2016-06-02T00:37:50.869Z,67.85
2016-06-02T00:38:50.872Z,68.62
2016-06-02T00:39:51.624Z,68.04
2016-06-02T00:40:50.862Z,68.71
2016-06-02T00:41:50.833Z,67.94
2016-06-02T00:42:50.820Z,68.46
2016-06-02T00:43:50.807Z,68.43
2016-06-02T00:44:50.638Z,67.97
2016-06-02T00:45:50.797Z,67.65
2016-06-02T00:46:50.753Z,67.97
2016-06-02T00:47:50.756Z,67.85
2016-06-02T00:48:50.742Z,68.17
2016-06-02T00:49:50.714Z,68.33
2016-06-02T00:50:50.717Z,67.88
2016-06-02T00:51:50.704Z,68.17
2016-06-02T00:52:50.691Z,67.88
2016-06-02T00:53:50.662Z,67.97
2016-06-02T00:54:50.665Z,67.78
2016-06-02T00:55:50.652Z,67.59
2016-06-02T00:56:50.577Z,68.07
2016-06-02T00:57:50.610Z,67.78
2016-06-02T00:58:50.597Z,68.17
2016-06-02T00:59:50.600Z,68.26
2016-06-02T01:00:50.635Z,67.78
2016-06-02T01:01:50.558Z,67.97
2016-06-02T01:02:50.561Z,67.88
2016-06-02T01:03:50.549Z,67.88
2016-06-02T01:04:50.582Z,68.26
2016-06-02T01:05:50.507Z,67.88
2016-06-02T01:06:50.510Z,67.97
2016-06-02T01:07:50.496Z,68.26
2016-06-02T01:08:50.468Z,68.46
2016-06-02T01:09:50.455Z,67.97
2016-06-02T01:10:50.457Z,68.07
2016-06-02T01:11:50.429Z,67.88
2016-06-02T01:12:50.620Z,68.07
2016-06-02T01:13:50.420Z,67.97
2016-06-02T01:14:50.407Z,67.88
2016-06-02T01:15:50.221Z,67.88
2016-06-02T01:16:50.209Z,67.97
2016-06-02T01:17:50.368Z,68.26
2016-06-02T01:18:50.370Z,67.59
2016-06-02T01:19:50.342Z,67.59
2016-06-02T01:20:50.767Z,67.78
2016-06-02T01:21:50.300Z,67.59
2016-06-02T01:22:50.287Z,67.78
2016-06-02T01:23:50.275Z,67.88
2016-06-02T01:24:50.278Z,67.69
2016-06-02T01:25:50.248Z,67.69
2016-06-02T01:26:50.251Z,67.59
2016-06-02T01:27:50.223Z,67.59
2016-06-02T01:28:50.756Z,67.59
2016-06-02T01:29:50.197Z,67.49
2016-06-02T01:30:50.184Z,67.01
2016-06-02T01:31:50.171Z,67.3
2016-06-02T01:32:50.158Z,67.2
2016-06-02T01:33:50.145Z,67.4
2016-06-02T01:34:50.132Z,67.49
2016-06-02T01:35:50.135Z,67.01
2016-06-02T01:36:50.669Z,67.01
2016-06-02T01:37:50.093Z,67.2
2016-06-02T01:38:50.080Z,67.11
2016-06-02T01:39:50.083Z,67.2
2016-06-02T01:40:50.055Z,67.88
2016-06-02T01:41:49.885Z,67.59
2016-06-02T01:42:50.029Z,67.49
2016-06-02T01:43:50.016Z,67.49
2016-06-02T01:44:50.659Z,67.01
2016-06-02T01:45:49.990Z,67.59
2016-06-02T01:46:49.976Z,67.4
2016-06-02T01:47:49.979Z,67.49
2016-06-02T01:48:49.951Z,66.91
2016-06-02T01:49:49.937Z,67.3
2016-06-02T01:50:49.940Z,67.01
2016-06-02T01:51:49.912Z,67.2
2016-06-02T01:52:50.759Z,67.01
2016-06-02T01:53:49.886Z,67.2
2016-06-02T01:54:50.576Z,67.01
2016-06-02T01:55:51.266Z,67.2
2016-06-02T01:56:49.848Z,67.2
2016-06-02T01:57:49.833Z,67.11
2016-06-02T01:58:49.837Z,67.2
2016-06-02T01:59:49.808Z,67.2
2016-06-02T02:00:49.952Z,67.49
2016-06-02T02:01:49.782Z,67.49
2016-06-02T02:02:49.769Z,67.49
2016-06-02T02:03:49.757Z,66.82
2016-06-02T02:04:49.744Z,66.82
2016-06-02T02:05:49.730Z,66.63
2016-06-02T02:06:49.718Z,67.01
2016-06-02T02:07:49.704Z,66.63
2016-06-02T02:08:50.786Z,66.63
2016-06-02T02:09:49.539Z,67.2
2016-06-02T02:10:49.682Z,67.3
2016-06-02T02:11:49.654Z,66.63
2016-06-02T02:12:49.485Z,66.72
2016-06-02T02:13:49.627Z,66.72
2016-06-02T02:14:49.614Z,66.82
2016-06-02T02:15:49.711Z,66.72
2016-06-02T02:16:50.792Z,66.63
2016-06-02T02:17:49.576Z,66.82
2016-06-02T02:18:49.562Z,66.72
2016-06-02T02:19:49.550Z,66.63
2016-06-02T02:20:49.536Z,66.91
2016-06-02T02:21:49.368Z,66.91
2016-06-02T02:22:49.526Z,66.91
2016-06-02T02:23:49.592Z,66.63
2016-06-02T02:24:50.203Z,66.91
2016-06-02T02:25:49.535Z,67.11
2016-06-02T02:26:49.474Z,66.63
2016-06-02T02:27:49.461Z,66.72
2016-06-02T02:28:49.450Z,66.72
2016-06-02T02:29:49.436Z,66.82
2016-06-02T02:30:49.422Z,66.53
2016-06-02T02:31:49.597Z,66.72
2016-06-02T02:32:49.382Z,67.01
2016-06-02T02:33:49.369Z,66.91
2016-06-02T02:34:49.355Z,66.82
2016-06-02T02:35:49.343Z,66.63
2016-06-02T02:36:49.330Z,66.53
2016-06-02T02:37:49.317Z,66.72
2016-06-02T02:38:49.304Z,66.63
2016-06-02T02:39:49.446Z,66.63
2016-06-02T02:40:49.497Z,66.63
2016-06-02T02:41:49.265Z,66.33
2016-06-02T02:42:49.252Z,66.43
2016-06-02T02:43:49.239Z,66.24
2016-06-02T02:44:49.226Z,66.53
2016-06-02T02:45:49.213Z,66.14
2016-06-02T02:46:49.231Z,66.24
2016-06-02T02:47:49.594Z,66.43
2016-06-02T02:48:49.175Z,66.05
2016-06-02T02:49:49.161Z,66.14
2016-06-02T02:50:49.149Z,66.24
2016-06-02T02:51:49.136Z,66.43
2016-06-02T02:52:49.123Z,66.14
2016-06-02T02:53:49.109Z,66.05
2016-06-02T02:54:48.941Z,65.95
2016-06-02T02:55:50.178Z,66.05
2016-06-02T02:56:49.072Z,66.05
2016-06-02T02:57:49.058Z,66.05
2016-06-02T02:58:49.045Z,66.05
2016-06-02T02:59:49.033Z,66.05
2016-06-02T03:00:49.082Z,65.95
2016-06-02T03:01:48.850Z,66.24
2016-06-02T03:02:48.838Z,66.33
2016-06-02T03:03:49.575Z,65.95
2016-06-02T03:04:48.983Z,66.24
2016-06-02T03:05:48.954Z,66.24
2016-06-02T03:06:48.957Z,66.05
2016-06-02T03:07:48.929Z,66.14
2016-06-02T03:08:48.932Z,66.53
2016-06-02T03:09:49.028Z,66.24
2016-06-02T03:10:49.749Z,66.24
2016-06-02T03:11:48.877Z,66.24
2016-06-02T03:12:48.865Z,66.14
2016-06-02T03:13:48.868Z,66.24
2016-06-02T03:14:48.838Z,66.05
2016-06-02T03:15:48.826Z,66.14
2016-06-02T03:16:48.812Z,66.24
2016-06-02T03:17:48.799Z,65.85
2016-06-02T03:18:48.630Z,66.05
2016-06-02T03:19:49.679Z,65.47
2016-06-02T03:20:48.761Z,65.56
2016-06-02T03:21:48.748Z,65.85
2016-06-02T03:22:48.734Z,66.33
2016-06-02T03:23:48.722Z,65.85
2016-06-02T03:24:48.725Z,65.95
2016-06-02T03:25:48.570Z,65.37
2016-06-02T03:26:48.730Z,65.47
2016-06-02T03:27:49.623Z,65.47
2016-06-02T03:28:48.682Z,66.24
2016-06-02T03:29:48.694Z,65.47
2016-06-02T03:30:48.706Z,65.56
2016-06-02T03:31:48.719Z,65.56
2016-06-02T03:32:48.731Z,65.85
2016-06-02T03:33:48.727Z,65.75
2016-06-02T03:34:48.740Z,65.37
2016-06-02T03:35:49.924Z,65.66
2016-06-02T03:36:48.732Z,65.75
2016-06-02T03:37:48.713Z,66.24
2016-06-02T03:38:48.720Z,66.43
2016-06-02T03:39:48.709Z,66.24
2016-06-02T03:40:48.559Z,66.24
2016-06-02T03:41:48.674Z,65.95
2016-06-02T03:42:48.664Z,65.66
2016-06-02T03:43:49.965Z,65.75
2016-06-02T03:44:48.641Z,65.66
2016-06-02T03:45:48.645Z,65.85
2016-06-02T03:46:48.616Z,65.37
2016-06-02T03:47:48.637Z,65.56
2016-06-02T03:48:48.593Z,66.05
2016-06-02T03:49:48.596Z,65.56
2016-06-02T03:50:48.568Z,65.95
2016-06-02T03:51:48.555Z,65.56
2016-06-02T03:52:48.558Z,65.95
2016-06-02T03:53:48.530Z,65.66
2016-06-02T03:54:48.533Z,65.85
2016-06-02T03:55:48.505Z,65.66
2016-06-02T03:56:48.493Z,65.85
2016-06-02T03:57:48.496Z,65.56
2016-06-02T03:58:48.467Z,65.56
2016-06-02T03:59:48.454Z,65.66
2016-06-02T04:00:48.487Z,65.56
2016-06-02T04:01:48.445Z,65.37
2016-06-02T04:02:48.415Z,65.56
2016-06-02T04:03:48.418Z,65.56
2016-06-02T04:04:48.389Z,65.66
2016-06-02T04:05:48.376Z,65.27
2016-06-02T04:06:48.379Z,65.47
2016-06-02T04:07:48.351Z,65.66
2016-06-02T04:08:48.353Z,65.47
2016-06-02T04:09:48.637Z,65.95
2016-06-02T04:10:48.936Z,65.66
2016-06-02T04:11:48.299Z,65.27
2016-06-02T04:12:48.285Z,65.56
2016-06-02T04:13:48.272Z,65.27
2016-06-02T04:14:48.260Z,65.66
2016-06-02T04:15:48.107Z,65.3
2016-06-02T04:16:48.234Z,65.08
2016-06-02T04:17:48.221Z,65.27
2016-06-02T04:18:48.224Z,65.4
2016-06-02T04:19:48.054Z,66.17
2016-06-02T04:20:48.182Z,65.56
2016-06-02T04:21:48.169Z,65.27
2016-06-02T04:22:48.172Z,65.27
2016-06-02T04:23:48.143Z,65.27
2016-06-02T04:24:48.349Z,65.95
2016-06-02T04:25:48.274Z,65.56
2016-06-02T04:26:48.120Z,65.37
2016-06-02T04:27:48.092Z,65.08
2016-06-02T04:28:48.095Z,65.37
2016-06-02T04:29:47.926Z,65.08
2016-06-02T04:30:48.054Z,65.95
2016-06-02T04:31:48.040Z,65.27
2016-06-02T04:32:48.027Z,65.75
2016-06-02T04:33:48.030Z,64.89
2016-06-02T04:34:48.001Z,65.27
2016-06-02T04:35:47.988Z,64.98
2016-06-02T04:36:47.975Z,65.27
2016-06-02T04:37:47.962Z,65.08
2016-06-02T04:38:47.950Z,65.27
2016-06-02T04:39:48.233Z,65.17
2016-06-02T04:40:47.783Z,65.27
2016-06-02T04:41:47.911Z,65.56
2016-06-02T04:42:47.898Z,65.27
2016-06-02T04:43:47.744Z,65.66
2016-06-02T04:44:47.872Z,65.56
2016-06-02T04:45:47.858Z,65.56
2016-06-02T04:46:47.847Z,65.95
2016-06-02T04:47:47.833Z,65.56
2016-06-02T04:48:47.821Z,65.95
2016-06-02T04:49:47.807Z,65.27
2016-06-02T04:50:47.794Z,65.08
2016-06-02T04:51:47.781Z,64.89
2016-06-02T04:52:47.784Z,65.17
2016-06-02T04:53:47.755Z,64.98
2016-06-02T04:54:47.774Z,65.27
2016-06-02T04:55:47.745Z,65.37
2016-06-02T04:56:47.732Z,65.75
2016-06-02T04:57:47.704Z,64.98
2016-06-02T04:58:47.706Z,65.17
2016-06-02T04:59:47.693Z,65.08
2016-06-02T05:00:47.837Z,65.08
2016-06-02T05:01:47.652Z,65.08
2016-06-02T05:02:47.640Z,64.89
2016-06-02T05:03:47.642Z,65.17
2016-06-02T05:04:47.614Z,65.37
2016-06-02T05:05:47.600Z,65.56
2016-06-02T05:06:47.587Z,64.79
2016-06-02T05:07:47.589Z,65.27
2016-06-02T05:08:47.561Z,65.56
2016-06-02T05:09:47.423Z,65.17
2016-06-02T05:10:47.395Z,65.85
2016-06-02T05:11:47.522Z,65.37
2016-06-02T05:12:47.525Z,65.66
2016-06-02T05:13:47.341Z,65.56
2016-06-02T05:14:47.500Z,64.98
2016-06-02T05:15:47.471Z,64.98
2016-06-02T05:16:47.302Z,65.17
2016-06-02T05:17:47.288Z,65.01
2016-06-02T05:18:47.448Z,64.98
2016-06-02T05:19:47.435Z,65.56
2016-06-02T05:20:47.406Z,65.01
2016-06-02T05:21:47.253Z,65.27
2016-06-02T05:22:47.380Z,64.79
2016-06-02T05:23:47.383Z,65.4
2016-06-02T05:24:54.526Z,64.98
2016-06-02T05:25:48.279Z,65.27
2016-06-02T05:26:47.329Z,64.89
2016-06-02T05:27:47.316Z,65.37
2016-06-02T05:28:47.146Z,64.92
2016-06-02T05:29:47.290Z,65.17
2016-06-02T05:30:47.277Z,65.08
2016-06-02T05:31:47.295Z,64.79
2016-06-02T05:32:47.251Z,65.17
2016-06-02T05:33:47.238Z,64.92
2016-06-02T05:34:47.241Z,65.66
2016-06-02T05:35:47.212Z,65.37
2016-06-02T05:36:47.200Z,64.79
2016-06-02T05:37:47.031Z,65.08
2016-06-02T05:38:47.173Z,64.98
2016-06-02T05:39:47.270Z,65.08
2016-06-02T05:40:47.367Z,65.37
2016-06-02T05:41:47.150Z,64.98
2016-06-02T05:42:47.122Z,64.98
2016-06-02T05:43:47.124Z,65.27
2016-06-02T05:44:47.096Z,65.56
2016-06-02T05:45:47.082Z,65.3
2016-06-02T05:46:47.070Z,65.47
2016-06-02T05:47:47.057Z,65.27
2016-06-02T05:48:47.044Z,64.98
2016-06-02T05:49:47.047Z,65.4
2016-06-02T05:50:46.862Z,64.89
2016-06-02T05:51:47.115Z,64.89
2016-06-02T05:52:46.851Z,64.4
2016-06-02T05:53:46.996Z,65.4
2016-06-02T05:54:46.982Z,64.69
2016-06-02T05:55:46.969Z,65.01
2016-06-02T05:56:46.956Z,65.01
2016-06-02T05:57:46.927Z,64.59
2016-06-02T05:58:46.915Z,64.92
2016-06-02T05:59:47.105Z,64.92
2016-06-02T06:00:46.951Z,64.89
2016-06-02T06:01:46.876Z,64.92
2016-06-02T06:02:46.879Z,64.79
2016-06-02T06:03:46.865Z,65.01
2016-06-02T06:04:46.853Z,65.08
2016-06-02T06:05:46.839Z,64.89
2016-06-02T06:06:46.671Z,64.59
2016-06-02T06:07:47.173Z,65.01
2016-06-02T06:08:46.801Z,64.98
2016-06-02T06:09:46.867Z,64.79
2016-06-02T06:10:46.775Z,64.4
2016-06-02T06:11:46.747Z,64.92
2016-06-02T06:12:46.734Z,65.01
2016-06-02T06:13:46.736Z,64.92
2016-06-02T06:14:46.723Z,64.82
2016-06-02T06:15:47.164Z,65.01
2016-06-02T06:16:46.539Z,65.01
2016-06-02T06:17:46.682Z,64.82
2016-06-02T06:18:46.669Z,64.82
2016-06-02T06:19:46.656Z,65.01
2016-06-02T06:20:46.644Z,65.01
2016-06-02T06:21:46.615Z,64.92
2016-06-02T06:22:46.616Z,65.11
2016-06-02T06:23:47.199Z,65.11
2016-06-02T06:24:46.905Z,65.01
2016-06-02T06:25:47.063Z,65.11
2016-06-02T06:26:46.566Z,64.82
2016-06-02T06:27:46.553Z,65.01
2016-06-02T06:28:46.540Z,64.92
2016-06-02T06:29:46.527Z,64.82
2016-06-02T06:30:46.514Z,65.01
2016-06-02T06:31:47.188Z,64.43
2016-06-02T06:32:46.488Z,64.53
2016-06-02T06:33:46.476Z,64.63
2016-06-02T06:34:46.462Z,64.53
2016-06-02T06:35:46.449Z,64.43
2016-06-02T06:36:46.437Z,64.63
2016-06-02T06:37:46.424Z,64.53
2016-06-02T06:38:46.410Z,65.01
2016-06-02T06:39:46.742Z,65.01
2016-06-02T06:40:46.962Z,64.72
2016-06-02T06:41:46.372Z,64.53
2016-06-02T06:42:46.359Z,64.63
2016-06-02T06:43:46.345Z,64.43
2016-06-02T06:44:46.333Z,63.56
2016-06-02T06:45:46.319Z,64.82
2016-06-02T06:46:46.307Z,64.5
2016-06-02T06:47:47.184Z,63.92
2016-06-02T06:48:46.281Z,62.95
2016-06-02T06:49:46.268Z,62.4
2016-06-02T06:50:46.255Z,62.21
2016-06-02T06:51:46.242Z,61.41
2016-06-02T06:52:46.229Z,61.51
2016-06-02T06:53:46.216Z,61.8
2016-06-02T06:54:46.203Z,61.6
2016-06-02T06:55:47.300Z,61.6
2016-06-02T06:56:46.021Z,61.6
2016-06-02T06:57:46.165Z,61.41
2016-06-02T06:58:46.151Z,61.51
2016-06-02T06:59:46.138Z,61.51
2016-06-02T07:00:46.016Z,61.51
2016-06-02T07:01:46.113Z,61.6
2016-06-02T07:02:46.099Z,61.31
2016-06-02T07:03:46.446Z,61.6
2016-06-02T07:04:46.074Z,61.6
2016-06-02T07:05:46.061Z,60.73
2016-06-02T07:06:46.048Z,60.35
2016-06-02T07:07:46.019Z,59.74
2016-06-02T07:08:46.022Z,59.16
2016-06-02T07:09:46.056Z,58.68
2016-06-02T07:10:46.090Z,58.48
2016-06-02T07:11:46.498Z,58.87
2016-06-02T07:12:45.971Z,58.77
2016-06-02T07:13:45.958Z,58.48
2016-06-02T07:14:45.944Z,58.77
2016-06-02T07:15:45.932Z,58.48
2016-06-02T07:16:45.919Z,58.97
2016-06-02T07:17:45.750Z,58.97
2016-06-02T07:18:46.190Z,59.35
2016-06-02T07:19:45.865Z,59.25
2016-06-02T07:20:45.851Z,59.45
2016-06-02T07:21:45.839Z,59.45
2016-06-02T07:22:45.670Z,59.16
2016-06-02T07:23:45.813Z,59.83
2016-06-02T07:24:45.800Z,59.74
2016-06-02T07:25:46.272Z,59.83
2016-06-02T07:26:46.086Z,59.74
2016-06-02T07:27:45.761Z,59.48
2016-06-02T07:28:45.749Z,59.16
2016-06-02T07:29:45.735Z,59.83
2016-06-02T07:30:45.722Z,59.55
2016-06-02T07:31:45.710Z,59.45
2016-06-02T07:32:45.696Z,59.35
2016-06-02T07:33:45.683Z,59.74
2016-06-02T07:34:46.124Z,59.93
2016-06-02T07:35:45.674Z,60.61
2016-06-02T07:36:45.645Z,60.13
2016-06-02T07:37:45.632Z,60.13
2016-06-02T07:38:45.618Z,60.13
2016-06-02T07:39:45.449Z,60.22
2016-06-02T07:40:46.093Z,60.22
2016-06-02T07:41:45.580Z,59.93
2016-06-02T07:42:46.114Z,60.71
2016-06-02T07:43:45.554Z,60.89
2016-06-02T07:44:45.541Z,60.03
2016-06-02T07:45:45.528Z,59.93
2016-06-02T07:46:45.531Z,60.03
2016-06-02T07:47:45.503Z,60.61
2016-06-02T07:48:45.490Z,60.89
2016-06-02T07:49:45.476Z,60.99
2016-06-02T07:50:46.120Z,60.8
2016-06-02T07:51:45.450Z,60.89
2016-06-02T07:52:45.422Z,60.99
2016-06-02T07:53:45.253Z,61.67
2016-06-02T07:54:45.256Z,61.77
2016-06-02T07:55:45.399Z,61.28
2016-06-02T07:56:45.386Z,60.71
2016-06-02T07:57:45.357Z,60.99
2016-06-02T07:58:45.407Z,60.03
2016-06-02T07:59:45.332Z,60.71
2016-06-02T08:00:45.381Z,60.71
2016-06-02T08:01:45.306Z,60.89
2016-06-02T08:02:45.293Z,60.89
2016-06-02T08:03:45.279Z,60.89
2016-06-02T08:04:45.282Z,60.89
2016-06-02T08:05:45.254Z,60.13
2016-06-02T08:06:45.443Z,60.99
2016-06-02T08:07:45.229Z,60.71
2016-06-02T08:08:45.215Z,60.99
2016-06-02T08:09:45.295Z,61.28
2016-06-02T08:10:45.205Z,61.19
2016-06-02T08:11:45.176Z,61.19
2016-06-02T08:12:45.162Z,61.28
2016-06-02T08:13:45.166Z,60.99
2016-06-02T08:14:45.434Z,61.57
2016-06-02T08:15:45.124Z,61.38
2016-06-02T08:16:45.111Z,61.67
2016-06-02T08:17:44.942Z,61.86
2016-06-02T08:18:45.086Z,61.67
2016-06-02T08:19:45.072Z,61.67
2016-06-02T08:20:45.045Z,61.96
2016-06-02T08:21:45.047Z,62.34
2016-06-02T08:22:46.269Z,62.44
2016-06-02T08:23:45.021Z,62.25
2016-06-02T08:24:45.055Z,62.34
2016-06-02T08:25:44.995Z,61.96
2016-06-02T08:26:44.967Z,61.77
2016-06-02T08:27:44.953Z,62.15
2016-06-02T08:28:44.941Z,62.15
2016-06-02T08:29:44.943Z,61.86
2016-06-02T08:30:45.274Z,61.38
2016-06-02T08:31:44.933Z,61.57
2016-06-02T08:32:44.905Z,61.28
2016-06-02T08:33:44.891Z,61.41
2016-06-02T08:34:44.879Z,61.51
2016-06-02T08:35:44.866Z,60.83
2016-06-02T08:36:44.853Z,60.93
2016-06-02T08:37:44.840Z,60.83
2016-06-02T08:38:44.842Z,60.93
2016-06-02T08:39:44.673Z,60.83
2016-06-02T08:40:44.895Z,60.83
2016-06-02T08:41:44.803Z,60.73
2016-06-02T08:42:44.775Z,60.44
2016-06-02T08:43:44.762Z,60.44
2016-06-02T08:44:44.733Z,60.73
2016-06-02T08:45:44.736Z,60.64
2016-06-02T08:46:44.551Z,60.93
2016-06-02T08:47:44.711Z,61.02
2016-06-02T08:48:44.525Z,60.64
2016-06-02T08:49:44.653Z,60.54
2016-06-02T08:50:44.656Z,60.44
2016-06-02T08:51:44.642Z,59.96
2016-06-02T08:52:44.631Z,60.06
2016-06-02T08:53:44.617Z,60.25
2016-06-02T08:54:44.464Z,60.06
2016-06-02T08:55:44.591Z,60.25
2016-06-02T08:56:44.578Z,60.28
2016-06-02T08:57:44.580Z,60.16
2016-06-02T08:58:44.552Z,60.18
2016-06-02T08:59:44.524Z,60.18
2016-06-02T09:00:44.574Z,60.35
2016-06-02T09:01:44.514Z,60.44
2016-06-02T09:02:44.485Z,60.18
2016-06-02T09:03:44.472Z,60.47
2016-06-02T09:04:44.459Z,60.28
2016-06-02T09:05:44.478Z,60.57
2016-06-02T09:06:44.433Z,59.8
2016-06-02T09:07:44.421Z,59.8
2016-06-02T09:08:44.408Z,59.6
2016-06-02T09:09:44.254Z,59.7
2016-06-02T09:10:44.241Z,59.51
2016-06-02T09:11:44.213Z,59.31
2016-06-02T09:12:44.356Z,59.51
2016-06-02T09:13:44.342Z,59.22
2016-06-02T09:14:44.329Z,59.6
2016-06-02T09:15:44.318Z,60.09
2016-06-02T09:16:44.304Z,60.57
2016-06-02T09:17:44.307Z,60.57
2016-06-02T09:18:44.278Z,60.09
2016-06-02T09:19:44.265Z,60.18
2016-06-02T09:20:44.096Z,60.47
2016-06-02T09:21:44.255Z,60.28
2016-06-02T09:22:44.259Z,60.28
2016-06-02T09:23:44.214Z,60.18
2016-06-02T09:24:45.779Z,60.47
2016-06-02T09:25:44.047Z,60.18
2016-06-02T09:26:44.190Z,61.15
2016-06-02T09:27:44.162Z,60.09
2016-06-02T09:28:44.150Z,59.8
2016-06-02T09:29:44.136Z,59.7
2016-06-02T09:30:44.123Z,59.8
2016-06-02T09:31:43.954Z,60.18
2016-06-02T09:32:44.097Z,60.28
2016-06-02T09:33:44.085Z,59.99
2016-06-02T09:34:44.071Z,60.18
2016-06-02T09:35:44.074Z,59.7
2016-06-02T09:36:44.046Z,59.6
2016-06-02T09:37:43.892Z,59.99
2016-06-02T09:38:44.035Z,59.8
2016-06-02T09:39:44.022Z,60.57
2016-06-02T09:40:43.993Z,60.28
2016-06-02T09:41:43.982Z,60.57
2016-06-02T09:42:43.984Z,60.28
2016-06-02T09:43:43.955Z,59.89
2016-06-02T09:44:43.957Z,59.99
2016-06-02T09:45:43.929Z,60.28
2016-06-02T09:46:43.931Z,61.15
2016-06-02T09:47:43.904Z,60.76
2016-06-02T09:48:43.890Z,60.09
2016-06-02T09:49:43.893Z,60.18
2016-06-02T09:50:43.865Z,60.18
2016-06-02T09:51:43.851Z,60.18
2016-06-02T09:52:43.839Z,60.28
2016-06-02T09:53:43.841Z,60.28
2016-06-02T09:54:44.438Z,60.28
2016-06-02T09:55:44.237Z,60.28
2016-06-02T09:56:43.803Z,60.67
2016-06-02T09:57:43.789Z,60.76
2016-06-02T09:58:43.761Z,60.86
2016-06-02T09:59:43.748Z,60.67
2016-06-02T10:00:43.798Z,60.57
2016-06-02T10:01:43.722Z,60.57
2016-06-02T10:02:43.553Z,60.86
2016-06-02T10:03:43.541Z,60.47
2016-06-02T10:04:43.683Z,60.67
2016-06-02T10:05:43.686Z,60.86
2016-06-02T10:06:43.658Z,60.76
2016-06-02T10:07:43.660Z,60.67
2016-06-02T10:08:43.632Z,60.57
2016-06-02T10:09:43.649Z,60.47
2016-06-02T10:10:43.622Z,60.76
2016-06-02T10:11:43.608Z,60.76
2016-06-02T10:12:43.595Z,60.67
2016-06-02T10:13:43.426Z,60.86
2016-06-02T10:14:43.570Z,60.38
2016-06-02T10:15:43.541Z,60.38
2016-06-02T10:16:43.528Z,60.57
2016-06-02T10:17:43.515Z,61.15
2016-06-02T10:18:43.501Z,61.05
2016-06-02T10:19:43.505Z,60.47
2016-06-02T10:20:43.492Z,60.18
2016-06-02T10:21:43.479Z,60.28
2016-06-02T10:22:43.451Z,60.28
2016-06-02T10:23:43.454Z,60.47
2016-06-02T10:24:43.284Z,60.67
2016-06-02T10:25:44.021Z,60.67
2016-06-02T10:26:43.414Z,60.76
2016-06-02T10:27:43.402Z,60.76
2016-06-02T10:28:43.388Z,60.76
2016-06-02T10:29:43.361Z,60.67
2016-06-02T10:30:43.456Z,60.67
2016-06-02T10:31:43.350Z,60.67
2016-06-02T10:32:43.180Z,60.86
2016-06-02T10:33:43.324Z,60.47
2016-06-02T10:34:43.311Z,61.25
2016-06-02T10:35:43.298Z,60.76
2016-06-02T10:36:43.285Z,60.67
2016-06-02T10:37:43.272Z,61.15
2016-06-02T10:38:43.416Z,60.86
2016-06-02T10:39:43.246Z,60.89
2016-06-02T10:40:44.077Z,60.69
2016-06-02T10:41:43.220Z,60.86
2016-06-02T10:42:43.223Z,61.05
2016-06-02T10:43:43.194Z,60.67
2016-06-02T10:44:43.182Z,60.47
2016-06-02T10:45:43.168Z,60.76
2016-06-02T10:46:43.452Z,60.57
2016-06-02T10:47:43.143Z,60.6
2016-06-02T10:48:43.130Z,60.79
2016-06-02T10:49:43.117Z,60.5
2016-06-02T10:50:43.104Z,60.11
2016-06-02T10:51:43.107Z,60.21
2016-06-02T10:52:43.094Z,60.69
2016-06-02T10:53:43.081Z,60.99
2016-06-02T10:54:43.506Z,60.6
2016-06-02T10:55:43.055Z,60.99
2016-06-02T10:56:43.042Z,61.08
2016-06-02T10:57:43.013Z,60.79
2016-06-02T10:58:43.001Z,60.5
2016-06-02T10:59:42.831Z,60.21
2016-06-02T11:00:43.131Z,60.31
2016-06-02T11:01:42.961Z,60.21
2016-06-02T11:02:43.464Z,60.69
2016-06-02T11:03:42.936Z,60.21
2016-06-02T11:04:42.923Z,60.11
2016-06-02T11:05:42.910Z,60.11
2016-06-02T11:06:42.897Z,60.6
2016-06-02T11:07:42.900Z,60.31
2016-06-02T11:08:42.872Z,60.21
2016-06-02T11:09:44.030Z,60.31
2016-06-02T11:10:43.876Z,60.21
2016-06-02T11:11:42.691Z,60.6
2016-06-02T11:12:42.679Z,60.31
2016-06-02T11:13:42.821Z,61.27
2016-06-02T11:14:42.794Z,60.21
2016-06-02T11:15:42.796Z,60.02
2016-06-02T11:16:42.783Z,60.21
2016-06-02T11:17:42.771Z,60.69
2016-06-02T11:18:42.743Z,60.11
2016-06-02T11:19:42.745Z,60.6
2016-06-02T11:20:42.731Z,60.6
2016-06-02T11:21:42.718Z,60.5
2016-06-02T11:22:42.706Z,60.6
2016-06-02T11:23:42.693Z,60.11
2016-06-02T11:24:43.804Z,60.21
2016-06-02T11:25:42.667Z,60.79
2016-06-02T11:26:42.747Z,60.69
2016-06-02T11:27:42.484Z,60.69
2016-06-02T11:28:42.644Z,60.5
2016-06-02T11:29:42.615Z,60.89
2016-06-02T11:30:42.603Z,60.5
2016-06-02T11:31:42.589Z,61.08
2016-06-02T11:32:42.575Z,60.02
2016-06-02T11:33:42.564Z,60.02
2016-06-02T11:34:42.753Z,60.11
2016-06-02T11:35:42.381Z,60.21
2016-06-02T11:36:42.525Z,60.11
2016-06-02T11:37:42.511Z,59.73
2016-06-02T11:38:42.499Z,59.92
2016-06-02T11:39:42.533Z,59.92
2016-06-02T11:40:42.472Z,59.83
2016-06-02T11:41:42.522Z,59.66
2016-06-02T11:42:42.760Z,59.76
2016-06-02T11:43:42.435Z,59.47
2016-06-02T11:44:42.265Z,59.47
2016-06-02T11:45:42.252Z,59.95
2016-06-02T11:46:42.411Z,59.53
2016-06-02T11:47:42.398Z,59.34
2016-06-02T11:48:42.369Z,59.56
2016-06-02T11:49:42.356Z,59.38
2016-06-02T11:50:42.749Z,59.56
2016-06-02T11:51:42.190Z,59.56
2016-06-02T11:52:42.334Z,59.86
2016-06-02T11:53:42.321Z,59.76
2016-06-02T11:54:43.073Z,59.66
2016-06-02T11:55:42.295Z,60.02
2016-06-02T11:56:42.266Z,59.83
2016-06-02T11:57:42.378Z,59.63
2016-06-02T11:58:42.256Z,59.83
2016-06-02T11:59:42.367Z,59.92
2016-06-02T12:00:42.277Z,59.83
2016-06-02T12:01:42.217Z,59.76
2016-06-02T12:02:42.204Z,59.44
2016-06-02T12:03:42.191Z,59.44
2016-06-02T12:04:42.178Z,59.47
2016-06-02T12:05:42.414Z,59.56
2016-06-02T12:06:42.152Z,59.47
2016-06-02T12:07:42.139Z,59.66
2016-06-02T12:08:42.142Z,59.76
2016-06-02T12:09:42.145Z,59.86
2016-06-02T12:10:41.944Z,59.86
2016-06-02T12:11:42.102Z,59.76
2016-06-02T12:12:42.091Z,59.56
2016-06-02T12:13:42.421Z,59.76
2016-06-02T12:14:42.049Z,59.28
2016-06-02T12:15:42.036Z,59.56
2016-06-02T12:16:42.038Z,59.95
2016-06-02T12:17:42.026Z,59.86
2016-06-02T12:18:42.012Z,59.73
2016-06-02T12:19:41.999Z,59.56
2016-06-02T12:20:41.987Z,59.86
2016-06-02T12:21:42.474Z,59.76
2016-06-02T12:22:41.960Z,59.76
2016-06-02T12:23:41.948Z,59.47
2016-06-02T12:24:41.951Z,59.47
2016-06-02T12:25:42.001Z,59.66
2016-06-02T12:26:41.909Z,59.76
2016-06-02T12:27:41.896Z,59.95
2016-06-02T12:28:41.884Z,59.83
2016-06-02T12:29:42.464Z,59.92
2016-06-02T12:30:41.857Z,59.66
2016-06-02T12:31:41.859Z,60.02
2016-06-02T12:32:41.832Z,60.31
2016-06-02T12:33:41.819Z,59.92
2016-06-02T12:34:41.815Z,59.86
2016-06-02T12:35:41.830Z,60.02
2016-06-02T12:36:41.845Z,59.76
2016-06-02T12:37:42.515Z,59.86
2016-06-02T12:38:41.874Z,60.05
2016-06-02T12:39:42.023Z,59.86
2016-06-02T12:40:42.754Z,60.05
2016-06-02T12:41:41.877Z,59.56
2016-06-02T12:42:41.718Z,59.86
2016-06-02T12:43:41.871Z,59.38
2016-06-02T12:44:41.725Z,59.38
2016-06-02T12:45:41.919Z,59.56
2016-06-02T12:46:41.847Z,59.76
2016-06-02T12:47:41.852Z,60.05
2016-06-02T12:48:41.687Z,59.76
2016-06-02T12:49:41.849Z,59.28
2016-06-02T12:50:41.822Z,59.28
2016-06-02T12:51:41.809Z,59.38
2016-06-02T12:52:41.797Z,58.98
2016-06-02T12:53:42.786Z,58.98
2016-06-02T12:54:41.790Z,58.8